Time;durP1;ratioP1;P1;durP2;ratioP2;P2;SDS_P1;SDS_P2;PMS_P1;PMS_P2;Temp;Humidity;BMP_temperature;BMP_pressure;BME280_temperature;BME280_humidity;BME280_pressure;Samples;Min_cycle;Max_cycle;Signal;HPM_P1;HPM_P2
2022/06/07 00:01:02;;;;;;;7.10;3.95;;;;;;;17.79;61.58;100855.13;1874372;76;21122;-64
2022/06/07 00:03:31;;;;;;;6.37;3.02;;;;;;;17.75;61.71;100851.33;1874220;76;21035;-64
2022/06/07 00:05:59;;;;;;;7.37;3.40;;;;;;;17.75;61.80;100848.67;1874230;76;21016;-64
2022/06/07 00:08:31;;;;;;;5.62;3.33;;;;;;;17.73;61.80;100845.26;1874091;76;21130;-64
2022/06/07 00:10:59;;;;;;;5.67;3.50;;;;;;;17.74;61.79;100841.66;1874230;76;21031;-64
2022/06/07 00:13:28;;;;;;;6.87;3.80;;;;;;;17.68;61.72;100838.54;1874160;76;21531;-64
2022/06/07 00:15:57;;;;;;;4.65;3.08;;;;;;;17.62;61.68;100841.14;1874251;76;21019;-64
2022/06/07 00:18:26;;;;;;;5.75;3.58;;;;;;;17.56;61.75;100838.89;1874188;76;21481;-64
2022/06/07 00:20:54;;;;;;;7.95;3.80;;;;;;;17.53;61.95;100843.08;1874110;76;21043;-64
2022/06/07 00:23:23;;;;;;;8.03;4.05;;;;;;;17.48;61.91;100847.85;1874211;76;21126;-64
2022/06/07 00:25:54;;;;;;;6.12;3.20;;;;;;;17.40;61.93;100847.52;1874175;76;21525;-64
2022/06/07 00:28:23;;;;;;;9.08;3.27;;;;;;;17.33;61.99;100853.23;1874284;76;21019;-64
2022/06/07 00:30:53;;;;;;;8.03;3.40;;;;;;;17.30;62.05;100850.78;1874186;76;21446;-63
2022/06/07 00:33:23;;;;;;;8.03;3.33;;;;;;;17.33;62.07;100849.23;1874130;76;21565;-64
2022/06/07 00:35:53;;;;;;;5.75;3.35;;;;;;;17.29;62.08;100853.06;1874278;76;21161;-64
2022/06/07 00:38:21;;;;;;;5.05;3.15;;;;;;;17.35;62.18;100851.80;1874220;76;21052;-64
2022/06/07 00:40:50;;;;;;;9.53;3.75;;;;;;;17.29;62.12;100855.72;1874253;76;21117;-64
2022/06/07 00:43:26;;;;;;;6.80;3.37;;;;;;;17.26;62.12;100856.39;1874252;76;21019;-64
2022/06/07 00:45:55;;;;;;;12.03;4.33;;;;;;;17.23;62.21;100854.80;1874243;76;21588;-66
2022/06/07 00:48:24;;;;;;;6.75;3.47;;;;;;;17.23;62.25;100856.62;1874191;76;21043;-64
2022/06/07 00:50:55;;;;;;;6.08;3.95;;;;;;;17.24;62.25;100856.48;1874180;76;21567;-65
2022/06/07 00:53:30;;;;;;;7.17;3.55;;;;;;;17.23;62.22;100858.79;1874096;76;21035;-64
2022/06/07 00:56:01;;;;;;;10.32;4.00;;;;;;;17.19;62.29;100857.29;1863571;76;21545;-64
2022/06/07 00:58:32;;;;;;;6.35;3.75;;;;;;;17.24;62.35;100859.15;1841852;77;21186;-64
2022/06/07 01:01:01;;;;;;;4.70;3.33;;;;;;;17.23;62.31;100854.80;1841995;78;21101;-64
2022/06/07 01:03:30;;;;;;;6.72;3.75;;;;;;;17.20;62.29;100859.47;1841817;78;21076;-64
2022/06/07 01:10:43;;;;;;;6.10;3.83;;;;;;;17.18;62.31;100855.57;1841827;78;21011;-64
2022/06/07 01:11:15;;;;;;;6.35;3.45;;;;;;;17.07;62.30;100871.37;1841802;78;21046;-64
2022/06/07 01:13:44;;;;;;;6.40;3.60;;;;;;;17.03;62.33;100872.53;1841931;78;21076;-64
2022/06/07 01:16:14;;;;;;;9.20;3.35;;;;;;;17.03;62.42;100873.86;1840750;77;21100;-64
2022/06/07 01:18:44;;;;;;;12.03;6.30;;;;;;;17.04;62.57;100874.22;1841868;77;21095;-64
2022/06/07 01:21:17;;;;;;;5.97;3.00;;;;;;;17.05;62.60;100879.94;1841280;77;21100;-65
2022/06/07 01:23:48;;;;;;;6.83;3.52;;;;;;;17.04;62.58;100875.09;1841824;78;21102;-64
2022/06/07 01:26:18;;;;;;;7.17;3.30;;;;;;;17.01;62.62;100873.11;1841966;78;21057;-65
2022/06/07 01:28:48;;;;;;;4.53;2.80;;;;;;;16.97;62.73;100870.63;1841760;78;21055;-64
2022/06/07 01:31:18;;;;;;;5.70;2.90;;;;;;;16.89;62.69;100880.89;1842062;78;21522;-65
2022/06/07 01:33:47;;;;;;;8.05;2.87;;;;;;;16.86;62.71;100885.09;1841796;78;21490;-65
2022/06/07 01:36:17;;;;;;;6.47;2.60;;;;;;;16.80;62.67;100882.77;1841793;78;21064;-64
2022/06/07 01:41:53;;;;;;;5.12;2.60;;;;;;;16.84;62.81;100883.02;1841774;78;21095;-64
2022/06/07 01:44:07;;;;;;;6.25;2.58;;;;;;;16.88;62.79;100883.19;1841819;77;21040;-64
2022/06/07 01:46:36;;;;;;;4.08;2.37;;;;;;;16.84;62.63;100877.69;1841680;78;21063;-64
2022/06/07 01:49:27;;;;;;;9.55;3.27;;;;;;;16.77;62.60;100871.02;1841771;78;21121;-64
2022/06/07 01:51:58;;;;;;;9.85;3.37;;;;;;;16.71;62.65;100872.70;1777210;80;21027;-64
2022/06/07 01:54:27;;;;;;;5.67;2.75;;;;;;;16.81;62.68;100877.84;1779170;80;21153;-64
2022/06/07 01:56:56;;;;;;;9.85;3.50;;;;;;;16.86;62.59;100883.77;1788609;80;21176;-65
2022/06/07 01:59:25;;;;;;;10.82;3.85;;;;;;;16.90;62.61;100883.94;1792802;80;21176;-65
2022/06/07 02:01:55;;;;;;;11.35;4.25;;;;;;;16.96;62.68;100880.03;1792766;80;21585;-64
2022/06/07 02:04:23;;;;;;;12.65;4.83;;;;;;;17.04;62.70;100886.19;1792829;80;21062;-65
2022/06/07 02:06:52;;;;;;;9.20;4.25;;;;;;;17.06;62.63;100886.95;1792758;80;21063;-64
2022/06/07 02:09:23;;;;;;;13.05;5.22;;;;;;;17.15;62.70;100889.02;1792599;80;21070;-65
2022/06/07 02:11:52;;;;;;;10.90;5.67;;;;;;;17.26;62.80;100890.50;1792926;80;21504;-65
2022/06/07 02:14:21;;;;;;;17.77;5.65;;;;;;;17.27;62.74;100894.89;1792822;80;21104;-64
2022/06/07 02:16:49;;;;;;;12.88;5.95;;;;;;;17.38;62.77;100886.70;1792862;80;21148;-64
2022/06/07 02:19:19;;;;;;;12.20;6.00;;;;;;;17.56;62.90;100892.14;1792972;79;21607;-65
2022/06/07 02:21:48;;;;;;;11.83;5.97;;;;;;;17.70;62.99;100893.39;1792819;80;21066;-65
2022/06/07 02:24:16;;;;;;;14.87;6.25;;;;;;;17.87;63.00;100891.44;1792917;80;21808;-65
2022/06/07 02:26:48;;;;;;;13.53;5.92;;;;;;;18.02;63.03;100891.76;1792883;80;21062;-64
2022/06/07 02:29:21;;;;;;;17.67;6.47;;;;;;;18.12;62.97;100890.16;1792863;80;21195;-64
2022/06/07 02:31:52;;;;;;;18.35;6.55;;;;;;;18.31;63.07;100894.22;1792952;80;21062;-65
2022/06/07 02:34:22;;;;;;;14.13;5.78;;;;;;;18.49;62.95;100895.61;1792785;79;21610;-66
2022/06/07 02:36:54;;;;;;;13.83;5.65;;;;;;;18.60;62.84;100896.19;1792846;80;21560;-64
2022/06/07 02:39:23;;;;;;;11.88;5.37;;;;;;;18.70;62.77;100895.05;1792847;80;21102;-65
2022/06/07 02:41:54;;;;;;;10.82;4.95;;;;;;;18.83;62.62;100899.07;1792884;80;21579;-65
2022/06/07 02:44:22;;;;;;;9.93;4.33;;;;;;;18.94;62.23;100900.98;1792890;80;21070;-64
2022/06/07 02:46:51;;;;;;;11.68;4.40;;;;;;;19.06;61.74;100902.77;1792778;79;21136;-66
2022/06/07 02:49:20;;;;;;;11.35;3.92;;;;;;;19.16;61.48;100905.13;1793007;80;21133;-65
2022/06/07 02:51:49;;;;;;;8.73;3.15;;;;;;;19.31;61.29;100900.98;1788292;79;21094;-65
2022/06/07 02:54:18;;;;;;;6.15;3.25;;;;;;;19.39;61.00;100899.45;1787212;80;21187;-65
2022/06/07 02:56:46;;;;;;;12.13;3.12;;;;;;;19.47;60.72;100902.89;1787012;80;21042;-65
2022/06/07 02:59:16;;;;;;;7.12;3.20;;;;;;;19.51;60.36;100896.34;1787218;80;21588;-65
2022/06/07 03:01:45;;;;;;;8.30;2.35;;;;;;;19.62;60.20;100896.89;1786962;79;21059;-65
2022/06/07 03:04:13;;;;;;;4.85;1.92;;;;;;;19.67;59.84;100894.73;1787014;80;21176;-65
2022/06/07 03:06:43;;;;;;;6.03;2.00;;;;;;;19.71;59.47;100901.55;1787010;80;21078;-65
2022/06/07 03:09:11;;;;;;;5.90;1.90;;;;;;;19.82;59.37;100893.60;1787006;80;21046;-65
2022/06/07 03:11:40;;;;;;;6.78;2.40;;;;;;;19.98;59.31;100903.99;1787037;80;21078;-65
2022/06/07 03:14:10;;;;;;;3.98;1.47;;;;;;;20.13;59.20;100898.45;1786864;80;21152;-65
2022/06/07 03:16:40;;;;;;;2.95;1.52;;;;;;;20.30;59.01;100906.00;1786998;79;21106;-65
2022/06/07 03:19:08;;;;;;;3.60;1.37;;;;;;;20.41;58.68;100900.67;1787058;79;21054;-64
2022/06/07 03:21:39;;;;;;;3.75;1.50;;;;;;;20.49;58.46;100901.89;1787102;80;21157;-65
2022/06/07 03:24:09;;;;;;;4.80;1.37;;;;;;;20.57;58.34;100900.33;1787021;80;21078;-65
2022/06/07 03:26:38;;;;;;;2.72;1.20;;;;;;;20.53;57.62;100898.03;1786985;79;21137;-66
2022/06/07 03:29:10;;;;;;;2.60;1.20;;;;;;;20.52;57.42;100893.64;1786987;79;21093;-65
2022/06/07 03:31:39;;;;;;;4.00;1.20;;;;;;;20.48;57.00;100888.17;1787125;80;21504;-65
2022/06/07 03:34:09;;;;;;;3.90;1.20;;;;;;;20.47;56.83;100893.14;1786980;79;21098;-65
2022/06/07 03:36:39;;;;;;;2.55;1.40;;;;;;;20.50;56.78;100894.25;1787080;79;21098;-64
2022/06/07 03:39:10;;;;;;;3.10;1.27;;;;;;;20.49;56.73;100896.55;1786870;80;21172;-65
2022/06/07 03:41:40;;;;;;;10.80;1.57;;;;;;;20.56;56.89;100895.09;1787157;80;21186;-64
2022/06/07 03:44:14;;;;;;;4.67;1.90;;;;;;;20.71;56.96;100897.95;1787018;79;21074;-63
2022/06/07 03:46:46;;;;;;;7.58;2.20;;;;;;;20.81;56.47;100902.92;1786943;79;21122;-62
2022/06/07 03:49:16;;;;;;;3.95;1.60;;;;;;;20.88;56.42;100900.61;1787043;80;21070;-63
2022/06/07 03:51:47;;;;;;;5.28;1.75;;;;;;;20.97;56.29;100900.34;1786749;79;21346;-63
2022/06/07 03:54:16;;;;;;;1.98;0.95;;;;;;;21.05;56.13;100899.25;1781449;80;21091;-63
2022/06/07 03:56:46;;;;;;;2.17;0.98;;;;;;;20.98;54.61;100902.90;1778400;80;21587;-63
2022/06/07 03:59:15;;;;;;;3.65;1.07;;;;;;;20.98;54.21;100912.27;1778488;80;21062;-64
2022/06/07 04:01:44;;;;;;;2.58;1.00;;;;;;;20.98;53.66;100915.44;1778609;80;21102;-64
2022/06/07 04:04:12;;;;;;;11.18;1.27;;;;;;;21.03;53.50;100910.58;1778230;80;21133;-64
2022/06/07 04:09:39;;;;;;;1.30;0.82;;;;;;;21.27;53.06;100917.11;1778445;80;21493;-62
2022/06/07 04:12:04;;;;;;;4.53;1.25;;;;;;;21.38;52.44;100914.89;1778498;80;21572;-63
2022/06/07 04:14:33;;;;;;;4.25;1.42;;;;;;;21.53;52.00;100919.52;1778077;80;21067;-63
2022/06/07 04:17:02;;;;;;;0.85;0.70;;;;;;;21.66;51.27;100916.67;1778523;80;21097;-63
2022/06/07 04:19:31;;;;;;;1.25;1.15;;;;;;;21.80;50.79;100912.35;1778701;80;21094;-63
2022/06/07 04:22:00;;;;;;;4.03;1.20;;;;;;;21.96;50.17;100918.09;1778626;80;21518;-62
2022/06/07 04:24:30;;;;;;;1.80;0.70;;;;;;;22.06;48.73;100907.94;1778286;80;21169;-63
2022/06/07 04:27:00;;;;;;;3.33;1.30;;;;;;;22.10;48.43;100906.22;1778483;80;21525;-63
2022/06/07 04:29:30;;;;;;;2.10;0.62;;;;;;;22.29;48.60;100913.56;1778380;80;21047;-64
2022/06/07 04:31:59;;;;;;;2.77;0.80;;;;;;;22.41;47.96;100916.17;1778393;80;21607;-64
2022/06/07 04:34:28;;;;;;;0.93;0.65;;;;;;;22.61;47.91;100916.66;1778556;80;21600;-63
2022/06/07 04:36:57;;;;;;;7.33;1.15;;;;;;;22.74;47.60;100911.91;1778635;80;21395;-63
2022/06/07 04:39:28;;;;;;;2.55;0.93;;;;;;;22.96;47.53;100918.04;1778473;80;21162;-64
2022/06/07 04:41:58;;;;;;;3.80;1.07;;;;;;;23.19;47.28;100915.20;1778273;80;21196;-63
2022/06/07 04:44:30;;;;;;;6.80;1.67;;;;;;;23.45;47.21;100919.05;1778283;80;21119;-63
2022/06/07 04:46:59;;;;;;;4.37;1.35;;;;;;;23.73;47.05;100915.69;1778308;80;21600;-63
2022/06/07 04:49:28;;;;;;;5.03;1.40;;;;;;;23.81;46.36;100915.37;1778440;80;21142;-63
2022/06/07 04:51:57;;;;;;;1.65;1.22;;;;;;;23.73;45.93;100913.84;1781567;80;21540;-64
2022/06/07 04:54:28;;;;;;;4.92;1.17;;;;;;;23.67;45.82;100918.45;1792756;79;21541;-64
2022/06/07 04:56:58;;;;;;;4.80;1.85;;;;;;;23.54;45.53;100921.91;1792537;79;21160;-63
2022/06/07 04:59:28;;;;;;;9.68;1.80;;;;;;;23.49;45.50;100915.09;1792720;80;21066;-62
2022/06/07 05:01:58;;;;;;;4.95;1.55;;;;;;;23.68;45.82;100918.78;1792797;79;21144;-63
2022/06/07 05:04:28;;;;;;;9.80;1.25;;;;;;;23.85;45.50;100911.91;1793445;79;21213;-65
2022/06/07 05:06:59;;;;;;;5.40;1.12;;;;;;;24.03;45.38;100920.08;1793264;79;21136;-65
2022/06/07 05:09:32;;;;;;;3.52;0.82;;;;;;;24.14;45.10;100919.08;1795327;79;21122;-65
2022/06/07 05:12:02;;;;;;;3.22;0.70;;;;;;;24.25;44.97;100919.78;1795356;79;21203;-65
2022/06/07 05:14:35;;;;;;;;;;;;;;;24.37;44.70;100920.97;1797951;79;21624;-65
2022/06/07 05:17:10;;;;;;;6.83;1.07;;;;;;;24.62;44.62;100923.05;1795255;80;20150;-64
2022/06/07 05:19:46;;;;;;;3.17;1.02;;;;;;;24.85;44.11;100921.33;1795198;80;21133;-64
2022/06/07 05:22:17;;;;;;;2.47;1.00;;;;;;;25.14;44.14;100924.35;1795266;79;21118;-64
2022/06/07 05:24:47;;;;;;;7.78;1.65;;;;;;;25.38;43.47;100914.41;1795259;79;21137;-65
2022/06/07 05:27:21;;;;;;;2.85;1.32;;;;;;;25.62;43.01;100915.16;1795272;80;21607;-64
2022/06/07 05:29:50;;;;;;;;;;;;;;;25.79;42.83;100907.55;1797942;80;21587;-64
2022/06/07 05:32:27;;;;;;;4.33;1.00;;;;;;;25.97;42.15;100902.68;1783792;80;20155;-65
2022/06/07 05:34:56;;;;;;;2.87;1.45;;;;;;;26.10;42.41;100909.86;1795360;80;21630;-65
2022/06/07 05:37:25;;;;;;;15.72;2.85;;;;;;;26.36;42.26;100909.03;1795344;80;21070;-64
2022/06/07 05:39:56;;;;;;;5.85;1.30;;;;;;;26.54;41.40;100903.06;1795216;79;21093;-67
2022/06/07 05:42:26;;;;;;;3.60;1.10;;;;;;;26.54;40.98;100905.77;1795436;80;21481;-65
2022/06/07 05:44:55;;;;;;;1.40;0.93;;;;;;;26.63;40.71;100906.66;1795345;80;21085;-64
2022/06/07 05:47:25;;;;;;;3.55;1.37;;;;;;;26.66;40.44;100908.21;1795289;80;21489;-64
2022/06/07 05:49:55;;;;;;;2.85;1.20;;;;;;;26.73;40.07;100911.97;1795293;80;21620;-64
2022/06/07 05:52:25;;;;;;;6.37;1.60;;;;;;;26.70;39.32;100913.62;1795306;80;21536;-65
2022/06/07 05:54:55;;;;;;;3.83;1.62;;;;;;;26.66;39.09;100913.61;1795309;80;21153;-64
2022/06/07 05:57:24;;;;;;;3.10;1.00;;;;;;;26.74;39.07;100913.16;1795376;80;21156;-65
2022/06/07 05:59:53;;;;;;;9.93;1.95;;;;;;;26.84;38.63;100911.67;1795077;79;21082;-64
2022/06/07 06:02:22;;;;;;;6.30;1.45;;;;;;;26.98;38.83;100913.41;1795406;80;21062;-64
2022/06/07 06:04:51;;;;;;;5.53;1.10;;;;;;;27.22;38.77;100908.08;1795095;79;21085;-64
2022/06/07 06:07:19;;;;;;;3.15;1.15;;;;;;;27.38;38.16;100918.64;1795328;80;21175;-65
2022/06/07 06:12:39;;;;;;;4.60;1.17;;;;;;;27.78;38.10;100910.22;1795297;79;21129;-66
2022/06/07 06:15:12;;;;;;;1.90;1.12;;;;;;;28.05;38.27;100909.08;1794712;80;21141;-64
2022/06/07 06:18:01;;;;;;;4.83;1.32;;;;;;;28.32;37.74;100907.87;1795274;80;21156;-64
2022/06/07 06:20:41;;;;;;;3.02;1.20;;;;;;;28.52;37.48;100902.08;1949735;73;21618;-64
2022/06/07 06:23:11;;;;;;;4.45;1.98;;;;;;;28.79;36.98;100905.74;1950228;73;21090;-64
2022/06/07 06:25:42;;;;;;;3.50;1.10;;;;;;;29.08;37.06;100906.43;1950195;73;21434;-64
2022/06/07 06:28:12;;;;;;;3.75;0.72;;;;;;;29.24;36.32;100905.54;1949800;73;21129;-64
2022/06/07 06:30:45;;;;;;;6.12;0.90;;;;;;;29.18;35.49;100900.84;1949963;73;21066;-64
2022/06/07 06:33:19;;;;;;;3.33;0.85;;;;;;;29.23;35.29;100904.36;1950257;73;21078;-64
2022/06/07 06:35:51;;;;;;;2.40;0.85;;;;;;;29.49;35.52;100908.08;1949945;73;21126;-64
2022/06/07 06:38:21;;;;;;;8.43;4.10;;;;;;;29.63;34.78;100902.41;1949912;73;21038;-64
2022/06/07 06:40:51;;;;;;;4.28;2.52;;;;;;;29.73;34.66;100901.66;1950062;73;21035;-65
2022/06/07 06:43:20;;;;;;;4.33;0.90;;;;;;;30.06;35.02;100899.20;1950015;73;21031;-64
2022/06/07 06:46:14;;;;;;;6.58;1.12;;;;;;;30.21;34.07;100909.55;1950059;73;21575;-64
2022/06/07 06:48:43;;;;;;;2.50;0.68;;;;;;;30.15;33.57;100904.87;1949878;73;21031;-65
2022/06/07 06:51:16;;;;;;;3.08;1.00;;;;;;;30.00;32.80;100902.97;1949880;73;21058;-64
2022/06/07 06:53:46;;;;;;;2.42;0.90;;;;;;;29.98;32.90;100895.52;1950209;73;20999;-64
2022/06/07 06:56:20;;;;;;;2.47;0.93;;;;;;;30.26;33.40;100907.14;1950195;73;21489;-64
2022/06/07 06:58:50;;;;;;;6.60;0.80;;;;;;;30.30;31.99;100900.30;1949907;73;21023;-64
2022/06/07 07:01:23;;;;;;;3.57;0.90;;;;;;;30.36;32.17;100900.97;1950219;73;21091;-64
2022/06/07 07:03:54;;;;;;;2.77;1.52;;;;;;;30.47;32.01;100898.80;1949970;73;21087;-64
2022/06/07 07:06:24;;;;;;;18.48;1.50;;;;;;;30.56;31.51;100900.39;1950121;73;21031;-64
2022/06/07 07:08:55;;;;;;;4.30;1.77;;;;;;;30.49;31.28;100898.09;1949961;73;21003;-65
2022/06/07 07:11:32;;;;;;;7.55;1.00;;;;;;;30.65;31.06;100897.91;1949957;73;21109;-65
2022/06/07 07:14:04;;;;;;;4.20;0.90;;;;;;;30.67;31.00;100897.72;1949926;73;21600;-64
2022/06/07 07:16:35;;;;;;;3.35;1.20;;;;;;;30.75;31.10;100901.19;1950121;73;21513;-64
2022/06/07 07:19:04;;;;;;;2.30;0.80;;;;;;;30.95;30.51;100908.78;1949949;73;21039;-65
2022/06/07 07:21:39;;;;;;;2.15;0.62;;;;;;;30.92;30.28;100906.45;1949898;73;21544;-64
2022/06/07 07:24:20;;;;;;;2.17;0.68;;;;;;;31.20;30.34;100907.94;1949864;73;21067;-64
2022/06/07 07:26:52;;;;;;;4.25;0.88;;;;;;;31.20;29.68;100905.75;1950395;73;21583;-65
2022/06/07 07:29:24;;;;;;;6.35;1.10;;;;;;;31.33;30.11;100903.16;1950311;73;21093;-64
2022/06/07 07:31:54;;;;;;;4.83;0.70;;;;;;;31.59;30.07;100899.07;1950080;73;21077;-64
2022/06/07 07:34:24;;;;;;;5.40;0.85;;;;;;;31.67;29.91;100907.09;1950093;73;21054;-63
2022/06/07 07:36:55;;;;;;;2.12;0.60;;;;;;;31.51;29.14;100909.05;1949966;73;21501;-65
2022/06/07 07:39:26;;;;;;;7.30;1.00;;;;;;;31.44;29.29;100900.46;1949857;73;21480;-64
2022/06/07 07:41:56;;;;;;;3.77;0.80;;;;;;;31.38;29.15;100903.44;1949993;73;21096;-64
2022/06/07 07:44:27;;;;;;;3.37;1.05;;;;;;;31.43;29.32;100902.34;1950005;73;21100;-64
2022/06/07 07:46:58;;;;;;;3.17;0.82;;;;;;;31.36;29.20;100898.71;1950159;73;21060;-64
2022/06/07 07:49:30;;;;;;;6.75;0.80;;;;;;;31.39;29.50;100902.91;1949820;73;21117;-64
2022/06/07 07:51:59;;;;;;;7.28;0.55;;;;;;;31.43;29.48;100896.91;1949909;73;21124;-64
2022/06/07 07:54:30;;;;;;;2.52;0.70;;;;;;;31.60;29.05;100892.60;1949970;73;21156;-64
2022/06/07 07:57:00;;;;;;;1.87;0.80;;;;;;;31.72;29.05;100888.30;1949831;73;21062;-64
2022/06/07 07:59:30;;;;;;;0.78;0.70;;;;;;;31.66;27.83;100894.53;1949939;73;21118;-64
2022/06/07 08:02:00;;;;;;;0.80;0.80;;;;;;;31.47;27.74;100881.91;1949914;73;21140;-64
2022/06/07 08:04:29;;;;;;;2.55;0.70;;;;;;;31.46;28.14;100890.22;1950015;73;21034;-64
2022/06/07 08:06:58;;;;;;;1.50;0.60;;;;;;;31.45;27.81;100896.19;1950157;73;21136;-64
2022/06/07 08:09:28;;;;;;;2.77;1.40;;;;;;;31.22;27.73;100892.80;1950024;73;20999;-64
2022/06/07 08:11:58;;;;;;;1.67;0.55;;;;;;;31.22;28.04;100892.27;1949878;73;21094;-64
2022/06/07 08:14:27;;;;;;;2.35;0.78;;;;;;;31.41;28.31;100890.82;1949918;73;21097;-64
2022/06/07 08:16:56;;;;;;;9.35;1.05;;;;;;;31.55;28.43;100877.67;1950009;73;21457;-64
2022/06/07 08:19:25;;;;;;;4.70;1.42;;;;;;;31.85;28.35;100877.52;1949507;73;21042;-64
2022/06/07 08:21:55;;;;;;;1.62;0.62;;;;;;;32.16;28.44;100879.05;1963023;73;21054;-64
2022/06/07 08:24:24;;;;;;;11.20;1.32;;;;;;;32.35;28.05;100880.21;1962390;73;21039;-64
2022/06/07 08:26:57;;;;;;;3.47;0.93;;;;;;;32.32;27.15;100877.91;1962737;73;21179;-64
2022/06/07 08:29:24;;;;;;;6.03;1.42;;;;;;;32.27;26.73;100889.39;1962814;73;21086;-64
2022/06/07 08:31:53;;;;;;;6.08;1.67;;;;;;;32.17;26.76;100882.11;1962835;73;21081;-64
2022/06/07 08:39:57;;;;;;;14.45;4.25;;;;;;;32.16;26.99;100881.77;1962832;73;21466;-64
2022/06/07 08:42:28;;;;;;;15.83;6.30;;;;;;;32.20;27.26;100878.97;1962780;73;21026;-64
2022/06/07 08:45:06;;;;;;;13.53;5.50;;;;;;;32.43;27.38;100878.70;1962345;73;21031;-64
2022/06/07 08:47:38;;;;;;;14.05;4.55;;;;;;;32.37;26.99;100877.29;1961834;73;21522;-64
2022/06/07 08:50:26;;;;;;;22.82;7.35;;;;;;;32.50;27.25;100880.12;1963182;73;21003;-64
2022/06/07 08:52:56;;;;;;;2.27;1.00;;;;;;;32.68;27.37;100881.81;1961707;73;21097;-64
2022/06/07 08:55:33;;;;;;;3.02;0.95;;;;;;;32.82;26.91;100882.70;1962630;73;21100;-64
2022/06/07 08:58:32;;;;;;;1.98;1.20;;;;;;;32.93;26.83;100877.19;1962409;73;21520;-64
2022/06/07 09:01:04;;;;;;;2.98;0.70;;;;;;;32.77;26.55;100872.09;1962928;73;21496;-64
2022/06/07 09:03:59;;;;;;;3.30;0.95;;;;;;;32.38;26.29;100878.46;1906939;73;21100;-64
2022/06/07 09:06:34;;;;;;;8.98;1.22;;;;;;;32.32;26.77;100881.47;1962700;73;21026;-64
2022/06/07 09:09:03;;;;;;;9.58;2.85;;;;;;;32.43;26.77;100886.05;1962924;73;21535;-64
2022/06/07 09:14:44;;;;;;;5.17;1.10;;;;;;;32.65;26.86;100875.39;1962927;73;21460;-64
2022/06/07 09:17:16;;;;;;;10.32;1.85;;;;;;;32.80;26.47;100881.23;1962750;73;21540;-64
2022/06/07 09:19:48;;;;;;;8.40;1.60;;;;;;;32.48;25.89;100884.91;1961784;73;21059;-64
2022/06/07 09:22:25;;;;;;;1.40;0.70;;;;;;;32.30;26.36;100874.02;1919954;73;21047;-64
2022/06/07 09:25:02;;;;;;;2.50;0.68;;;;;;;32.22;26.30;100867.37;1914667;74;21059;-64
2022/06/07 09:27:32;;;;;;;1.80;0.90;;;;;;;32.34;26.61;100866.81;1915355;75;21118;-64
2022/06/07 09:30:03;;;;;;;6.92;0.90;;;;;;;32.57;26.66;100864.61;1915131;75;21032;-64
2022/06/07 09:32:36;;;;;;;4.00;1.17;;;;;;;32.54;26.27;100868.27;1913630;74;21067;-64
2022/06/07 09:35:05;;;;;;;;;;;;;;;32.53;26.56;100858.42;1918064;75;21524;-64
2022/06/07 09:37:48;;;;;;;6.05;0.80;;;;;;;32.44;26.36;100856.38;1915195;74;20160;-65
2022/06/07 09:40:32;;;;;;;5.30;1.00;;;;;;;32.50;26.65;100848.25;1915513;75;21027;-64
2022/06/07 09:43:09;;;;;;;3.75;0.98;;;;;;;32.54;26.95;100843.23;1915367;75;21003;-64
2022/06/07 09:45:46;;;;;;;2.20;0.60;;;;;;;32.77;27.16;100855.73;1915612;74;21031;-64
2022/06/07 09:48:39;;;;;;;0.70;0.50;;;;;;;32.60;26.61;100855.24;1914583;74;21118;-64
2022/06/07 09:51:19;;;;;;;1.80;0.82;;;;;;;32.37;26.48;100841.88;1914757;75;21031;-64
2022/06/07 09:54:00;;;;;;;1.57;1.15;;;;;;;32.06;26.28;100849.98;1915287;75;21097;-64
2022/06/07 09:56:52;;;;;;;0.53;0.53;;;;;;;31.97;26.75;100848.42;1914395;75;21031;-64
2022/06/07 09:59:51;;;;;;;1.40;0.88;;;;;;;31.97;27.11;100855.22;1914845;75;21020;-64
2022/06/07 10:02:31;;;;;;;1.98;0.80;;;;;;;31.97;27.24;100849.77;1914259;75;21072;-64
2022/06/07 10:05:18;;;;;;;11.25;1.57;;;;;;;32.03;27.42;100843.56;1914826;74;21130;-64
2022/06/07 10:07:50;;;;;;;8.48;3.45;;;;;;;31.96;27.24;100844.83;1915420;75;21461;-64
2022/06/07 10:10:36;;;;;;;6.83;1.87;;;;;;;31.79;27.49;100838.01;1915370;75;21023;-64
2022/06/07 10:13:29;;;;;;;4.45;1.22;;;;;;;31.59;27.24;100844.64;1915144;74;21505;-65
2022/06/07 10:15:59;;;;;;;;;;;;;;;31.61;27.84;100843.92;1916893;74;21039;-64
2022/06/07 10:18:48;;;;;;;3.40;0.75;;;;;;;31.76;27.85;100839.22;1915331;75;20151;-64
2022/06/07 10:21:40;;;;;;;2.87;0.80;;;;;;;31.75;27.95;100823.42;1898714;75;21153;-64
2022/06/07 10:24:27;;;;;;;2.47;0.85;;;;;;;31.73;28.27;100831.47;1949271;73;21051;-64
2022/06/07 10:26:58;;;;;;;2.10;0.80;;;;;;;31.61;27.86;100824.34;1949888;73;21097;-64
2022/06/07 10:29:48;;;;;;;12.98;4.22;;;;;;;31.50;28.21;100832.55;1949967;73;21027;-64
2022/06/07 10:32:37;;;;;;;8.95;2.52;;;;;;;31.73;28.36;100830.11;1949171;73;21549;-64
2022/06/07 10:35:11;;;;;;;4.58;1.00;;;;;;;31.49;28.04;100816.41;1949630;73;21075;-64
2022/06/07 10:37:59;;;;;;;6.30;1.00;;;;;;;31.22;28.39;100812.56;1950158;73;21031;-64
2022/06/07 10:40:40;;;;;;;2.20;1.00;;;;;;;31.39;28.71;100811.77;1944900;72;21172;-64
2022/06/07 10:43:17;;;;;;;1.67;0.60;;;;;;;31.41;28.90;100813.28;1894439;75;21125;-66
2022/06/07 10:45:47;;;;;;;1.52;0.60;;;;;;;31.36;28.78;100813.85;1949230;73;21109;-64
2022/06/07 10:48:34;;;;;;;5.17;0.90;;;;;;;31.30;28.88;100813.28;1948814;73;21003;-64
2022/06/07 10:52:20;;;;;;;9.68;1.32;;;;;;;31.01;28.81;100811.52;1949846;73;21105;-64
2022/06/07 10:53:47;;;;;;;5.33;0.80;;;;;;;30.53;29.18;100826.08;1945711;73;21027;-64
2022/06/07 10:56:18;;;;;;;0.40;0.40;;;;;;;30.44;29.54;100817.70;1949937;73;21039;-63
2022/06/07 10:58:50;;;;;;;1.57;0.68;;;;;;;30.31;29.67;100803.39;1948014;73;21027;-64
2022/06/07 11:01:27;;;;;;;5.30;0.78;;;;;;;30.14;29.86;100812.25;1949812;73;21035;-64
2022/06/07 11:09:19;;;;;;;4.60;0.90;;;;;;;29.99;30.14;100811.72;1949945;73;21504;-64
2022/06/07 11:09:41;;;;;;;6.72;0.70;;;;;;;29.87;30.54;100809.64;1949814;73;21494;-64
2022/06/07 11:12:13;;;;;;;1.37;0.80;;;;;;;29.98;30.65;100795.61;1949859;73;21411;-64
2022/06/07 11:14:53;;;;;;;2.42;0.70;;;;;;;29.98;30.62;100810.02;1949662;73;21034;-64
2022/06/07 11:17:25;;;;;;;1.02;0.50;;;;;;;30.11;30.70;100794.95;1948885;73;21039;-64
2022/06/07 11:19:54;;;;;;;1.55;0.90;;;;;;;30.17;30.71;100798.27;1949780;73;21082;-64
2022/06/07 11:22:25;;;;;;;0.70;0.60;;;;;;;30.02;30.51;100788.77;1934361;73;21567;-64
2022/06/07 11:24:59;;;;;;;4.33;0.70;;;;;;;29.91;30.53;100781.92;1914075;74;21087;-64
2022/06/07 11:27:30;;;;;;;2.90;0.85;;;;;;;29.77;30.71;100801.73;1914793;74;21490;-64
2022/06/07 11:30:21;;;;;;;1.85;0.72;;;;;;;29.60;30.81;100788.81;1915101;75;21109;-64
2022/06/07 11:32:54;;;;;;;13.22;1.82;;;;;;;29.60;30.96;100787.45;1915071;75;21524;-64
2022/06/07 11:35:40;;;;;;;;;;;;;;;29.62;31.02;100783.55;1917366;75;21462;-64
2022/06/07 11:38:20;;;;;;;3.05;1.00;;;;;;;29.58;31.03;100780.85;1914899;75;20139;-64
2022/06/07 11:40:51;;;;;;;3.62;0.90;;;;;;;29.43;30.92;100769.13;1908724;74;21117;-64
2022/06/07 11:43:48;;;;;;;7.10;1.00;;;;;;;29.41;31.22;100776.09;1915032;75;21046;-64
2022/06/07 11:46:35;;;;;;;0.80;0.60;;;;;;;29.54;31.51;100767.33;1915133;75;21515;-64
2022/06/07 11:49:25;;;;;;;5.62;1.12;;;;;;;29.26;31.62;100765.72;1914187;75;21610;-64
2022/06/07 11:52:00;;;;;;;1.65;0.80;;;;;;;29.16;31.96;100764.62;1914879;75;21121;-64
2022/06/07 11:54:34;;;;;;;3.65;0.85;;;;;;;29.15;32.10;100761.56;1914798;75;21188;-64
2022/06/07 11:57:06;;;;;;;2.77;0.90;;;;;;;29.07;32.14;100762.44;1914189;74;21109;-64
2022/06/07 11:59:44;;;;;;;10.43;1.12;;;;;;;29.02;32.29;100764.01;1913522;74;21494;-64
2022/06/07 12:02:18;;;;;;;1.82;0.80;;;;;;;28.97;32.32;100766.41;1914693;75;21035;-64
2022/06/07 12:04:50;;;;;;;8.10;0.93;;;;;;;28.88;31.99;100754.28;1915200;74;21114;-64
2022/06/07 12:07:27;;;;;;;;;;;;;;;28.89;32.39;100760.54;1917813;75;21035;-64
2022/06/07 12:09:59;;;;;;;4.00;1.00;;;;;;;28.99;32.59;100760.30;1913995;74;20113;-65
2022/06/07 12:12:40;;;;;;;3.72;0.78;;;;;;;28.97;32.38;100751.50;1914896;75;21008;-64
2022/06/07 12:15:18;;;;;;;5.12;1.55;;;;;;;28.96;32.60;100749.83;1914600;75;21032;-64